Aviation Digital Data Service (ADDS)

Output produced by METARs form (0348 UTC 26 June 2019)
found at http://www.aviationweather.gov/metar/data/
 
Forecast for: KMWH (MOSES LAKE , WA, US)
Text: KMWH 260038Z 2601/2624 17006KT P6SM SCT200
Forecast period: 0100 to 1000 UTC 26 June 2019
Forecast type: FROM: standard forecast or significant change
Winds: from the S (170 degrees) at 7 MPH (6 knots; 3.1 m/s)
Visibility: 6 or more miles 10+ km)
Ceiling: at least 12,000 feet AGL
Clouds: scattered clouds at 20000 feet AGL
Weather: no significant weather forecast for this period
Text: FM261000 21004KT P6SM VCSH BKN100
Forecast period: 1000 to 2300 UTC 26 June 2019
Forecast type: FROM: standard forecast or significant change
Winds: from the SSW (210 degrees) at 5 MPH (4 knots; 2.1 m/s)
Visibility: 6 or more miles 10+ km)
Ceiling: 10000 feet AGL
Clouds: broken clouds at 10000 feet AGL
Weather: VCSH  (showers in vicinity)
Text: FM262300 24006KT P6SM VCTS SCT060CB BKN120
Forecast period: 2300 UTC 26 June 2019 to 0000 UTC 27 June 2019
Forecast type: FROM: standard forecast or significant change
Winds: from the WSW (240 degrees) at 7 MPH (6 knots; 3.1 m/s)
Visibility: 6 or more miles 10+ km)
Ceiling: 12000 feet AGL
Clouds: scattered clouds at 6000 feet AGL
broken clouds at 12000 feet AGL
Weather: VCTS  (thunderstorm in vicinity)